Time;durP1;ratioP1;P1;durP2;ratioP2;P2;SDS_P1;SDS_P2;PMS_P1;PMS_P2;Temp;Humidity;BMP_temperature;BMP_pressure;BME280_temperature;BME280_humidity;BME280_pressure;Samples;Min_cycle;Max_cycle;Signal;HPM_P1;HPM_P2
2022/08/07 00:00:47;;;;;;;5.22;2.70;;;19.20;63.00;;;;;;5042316;28;20049;-67
2022/08/07 00:03:12;;;;;;;5.38;3.20;;;19.20;63.00;;;;;;5040050;28;20052;-69
2022/08/07 00:05:38;;;;;;;6.38;3.05;;;19.20;63.30;;;;;;5029662;28;20424;-66
2022/08/07 00:08:05;;;;;;;6.75;3.28;;;19.20;63.40;;;;;;5014471;28;20037;-67
2022/08/07 00:10:31;;;;;;;5.55;3.60;;;19.20;63.70;;;;;;5032267;28;20034;-67
2022/08/07 00:13:05;;;;;;;6.82;2.70;;;19.10;63.70;;;;;;5045805;28;20025;-66
2022/08/07 00:15:31;;;;;;;8.03;4.93;;;19.20;63.60;;;;;;5033231;28;20323;-67
2022/08/07 00:17:57;;;;;;;4.43;3.40;;;19.10;63.60;;;;;;5034952;28;20517;-67
2022/08/07 00:20:24;;;;;;;4.47;2.92;;;19.10;63.90;;;;;;5030418;28;20104;-67
2022/08/07 00:22:49;;;;;;;6.22;3.53;;;19.10;64.00;;;;;;5031737;28;20113;-67
2022/08/07 00:25:15;;;;;;;5.95;3.83;;;19.10;64.40;;;;;;5030621;28;20528;-67
2022/08/07 00:27:40;;;;;;;6.30;4.15;;;19.10;64.40;;;;;;5046852;28;20035;-67
2022/08/07 00:30:06;;;;;;;4.70;3.20;;;19.00;64.40;;;;;;5033986;28;20026;-67
2022/08/07 00:32:32;;;;;;;3.28;2.47;;;19.00;64.20;;;;;;5034385;28;20033;-67
2022/08/07 00:34:58;;;;;;;4.65;2.63;;;19.00;64.10;;;;;;5051565;28;20079;-66
2022/08/07 00:37:25;;;;;;;5.20;4.00;;;18.90;64.40;;;;;;5029982;28;20037;-66
2022/08/07 00:39:54;;;;;;;5.07;3.47;;;19.00;64.50;;;;;;5031161;28;20029;-67
2022/08/07 00:42:20;;;;;;;4.63;2.97;;;18.90;64.50;;;;;;5035324;28;20388;-67
2022/08/07 00:44:46;;;;;;;5.32;2.70;;;18.90;64.40;;;;;;5051312;28;20024;-67
2022/08/07 00:47:12;;;;;;;5.13;3.83;;;18.80;64.60;;;;;;5032126;28;20033;-67
2022/08/07 00:49:38;;;;;;;4.85;3.45;;;18.80;65.00;;;;;;5038998;28;20055;-67
2022/08/07 00:52:08;;;;;;;6.10;3.00;;;18.80;64.80;;;;;;5034211;28;20443;-67
2022/08/07 00:54:34;;;;;;;4.32;2.70;;;18.80;64.80;;;;;;5031095;28;20057;-66
2022/08/07 00:57:00;;;;;;;4.72;2.63;;;18.70;64.80;;;;;;5043747;28;20480;-67
2022/08/07 00:59:26;;;;;;;4.25;2.80;;;18.70;65.20;;;;;;5034075;28;20143;-67
2022/08/07 01:01:52;;;;;;;3.38;2.63;;;18.70;65.20;;;;;;5034735;28;20022;-67
2022/08/07 01:04:18;;;;;;;4.95;3.17;;;18.70;65.50;;;;;;5033849;28;20033;-67
2022/08/07 01:06:44;;;;;;;4.78;2.70;;;18.70;65.50;;;;;;5033660;28;20046;-67
2022/08/07 01:09:12;;;;;;;5.88;3.03;;;18.70;65.70;;;;;;5034936;28;20038;-67
2022/08/07 01:11:39;;;;;;;4.03;2.60;;;18.70;65.80;;;;;;5033888;28;20025;-68
2022/08/07 01:14:06;;;;;;;4.05;2.30;;;18.70;65.90;;;;;;5038313;28;20040;-69
2022/08/07 01:16:31;;;;;;;4.60;2.72;;;18.60;65.80;;;;;;5049697;28;20087;-68
2022/08/07 01:18:57;;;;;;;3.42;2.10;;;18.60;65.80;;;;;;5036410;28;20032;-68
2022/08/07 01:21:24;;;;;;;3.92;2.50;;;18.60;66.10;;;;;;5054618;28;20661;-68
2022/08/07 01:23:52;;;;;;;5.05;2.42;;;18.50;66.20;;;;;;5040027;28;20101;-68
2022/08/07 01:26:19;;;;;;;5.93;2.58;;;18.50;66.50;;;;;;5016137;28;20033;-68
2022/08/07 01:28:48;;;;;;;3.55;2.50;;;18.50;66.70;;;;;;5035850;28;20022;-68
2022/08/07 01:31:16;;;;;;;4.40;2.35;;;18.50;67.00;;;;;;5041445;28;20103;-68
2022/08/07 01:33:42;;;;;;;4.93;3.03;;;18.40;67.20;;;;;;5034080;28;20039;-67
2022/08/07 01:36:09;;;;;;;3.10;2.35;;;18.40;67.10;;;;;;5034767;28;20025;-67
2022/08/07 01:38:35;;;;;;;12.05;6.70;;;18.40;67.30;;;;;;5036098;28;20044;-67
2022/08/07 01:41:02;;;;;;;8.10;4.45;;;18.40;67.40;;;;;;5032363;28;20116;-67
2022/08/07 01:43:30;;;;;;;18.05;11.63;;;18.40;67.80;;;;;;5033406;28;20354;-67
2022/08/07 01:45:57;;;;;;;18.77;12.50;;;18.40;67.70;;;;;;5054308;28;20032;-68
2022/08/07 01:48:23;;;;;;;20.05;11.98;;;18.40;67.70;;;;;;5045189;28;20025;-67
2022/08/07 01:50:56;;;;;;;16.73;10.63;;;18.40;67.70;;;;;;5034069;28;20026;-67
2022/08/07 01:53:24;;;;;;;11.13;6.55;;;18.40;67.80;;;;;;5033054;28;20044;-67
2022/08/07 01:55:55;;;;;;;9.50;4.97;;;18.40;68.00;;;;;;5034502;28;20175;-67
2022/08/07 01:58:23;;;;;;;6.55;3.70;;;18.30;68.00;;;;;;5032934;28;20037;-67
2022/08/07 02:00:54;;;;;;;5.50;3.20;;;18.30;67.90;;;;;;5033406;28;20033;-67
2022/08/07 02:03:22;;;;;;;5.32;3.17;;;18.30;67.80;;;;;;5032991;28;20033;-67
2022/08/07 02:05:58;;;;;;;4.93;3.00;;;18.30;67.90;;;;;;5021924;28;20502;-67
2022/08/07 02:08:25;;;;;;;6.35;3.30;;;18.30;68.30;;;;;;5019505;28;20117;-67
2022/08/07 02:10:55;;;;;;;4.18;2.58;;;18.20;68.70;;;;;;5031672;28;20045;-68
2022/08/07 02:13:23;;;;;;;4.88;2.88;;;18.20;68.80;;;;;;5025120;28;20025;-68
2022/08/07 02:15:51;;;;;;;3.88;2.50;;;18.20;68.40;;;;;;5031529;28;20033;-67
2022/08/07 02:18:19;;;;;;;3.30;2.33;;;18.20;68.90;;;;;;5024370;28;20057;-67
2022/08/07 02:20:47;;;;;;;5.05;2.85;;;18.20;68.80;;;;;;5012815;28;20034;-67
2022/08/07 02:23:15;;;;;;;5.10;3.10;;;18.20;68.90;;;;;;5013149;28;20022;-67
2022/08/07 02:25:41;;;;;;;4.32;3.17;;;18.20;69.00;;;;;;5012767;28;20030;-67
2022/08/07 02:28:08;;;;;;;7.28;5.75;;;18.20;69.10;;;;;;5013766;28;20030;-67
2022/08/07 02:30:37;;;;;;;8.73;6.07;;;18.20;68.90;;;;;;5012761;28;20030;-67
2022/08/07 02:33:04;;;;;;;7.43;5.45;;;18.10;68.90;;;;;;5015147;28;20026;-67
2022/08/07 02:35:32;;;;;;;5.53;3.80;;;18.10;69.10;;;;;;5031294;28;20026;-68
2022/08/07 02:38:01;;;;;;;5.45;3.92;;;18.10;68.90;;;;;;5007758;28;20044;-68
2022/08/07 02:40:27;;;;;;;6.18;3.35;;;18.10;69.10;;;;;;5006218;28;20025;-68
2022/08/07 02:42:54;;;;;;;6.10;3.53;;;18.00;69.00;;;;;;5013902;28;20030;-69
2022/08/07 02:45:23;;;;;;;5.63;2.85;;;18.00;68.90;;;;;;5026194;28;20116;-68
2022/08/07 02:47:49;;;;;;;6.45;3.40;;;18.00;69.10;;;;;;5017418;28;20037;-68
2022/08/07 02:50:15;;;;;;;4.90;3.25;;;17.90;69.10;;;;;;5016717;28;20033;-68
2022/08/07 02:52:53;;;;;;;4.97;2.75;;;17.90;69.40;;;;;;5013523;28;20030;-67
2022/08/07 02:55:22;;;;;;;5.43;3.25;;;17.90;69.70;;;;;;5012283;28;20030;-68
2022/08/07 02:57:49;;;;;;;3.58;2.50;;;17.90;69.30;;;;;;5012943;28;20042;-68
2022/08/07 03:00:16;;;;;;;4.05;2.80;;;17.90;69.20;;;;;;5012411;28;20026;-68
2022/08/07 03:02:45;;;;;;;5.90;2.80;;;17.80;69.30;;;;;;5026721;28;20042;-68
2022/08/07 03:05:11;;;;;;;4.60;2.60;;;17.80;69.40;;;;;;5032677;28;20052;-68
2022/08/07 03:07:38;;;;;;;4.25;2.47;;;17.80;69.40;;;;;;5045017;28;20164;-69
2022/08/07 03:10:05;;;;;;;4.63;2.60;;;17.80;69.40;;;;;;5032011;28;20040;-69
2022/08/07 03:12:32;;;;;;;5.47;2.40;;;17.80;69.40;;;;;;5032174;28;20169;-68
2022/08/07 03:14:59;;;;;;;5.40;3.40;;;17.70;69.30;;;;;;5013465;28;20037;-68
2022/08/07 03:17:25;;;;;;;3.95;2.17;;;17.70;69.30;;;;;;5030326;28;20041;-68
2022/08/07 03:19:52;;;;;;;4.72;2.40;;;17.70;69.40;;;;;;5042752;28;20033;-67
2022/08/07 03:22:19;;;;;;;5.70;3.13;;;17.70;69.60;;;;;;5033817;28;20083;-67
2022/08/07 03:24:47;;;;;;;5.95;2.70;;;17.70;69.90;;;;;;5031225;28;20040;-67
2022/08/07 03:27:14;;;;;;;3.78;2.42;;;17.60;69.90;;;;;;5032381;28;20033;-67
2022/08/07 03:29:44;;;;;;;3.95;2.20;;;17.60;69.90;;;;;;5031670;28;20076;-67
2022/08/07 03:32:12;;;;;;;4.68;2.38;;;17.60;70.10;;;;;;5032677;28;20022;-67
2022/08/07 03:34:39;;;;;;;3.30;2.33;;;17.60;70.20;;;;;;5013496;28;20037;-67
2022/08/07 03:37:08;;;;;;;8.98;6.15;;;17.60;70.30;;;;;;5044135;28;20036;-68
2022/08/07 03:39:35;;;;;;;11.00;5.95;;;17.60;70.30;;;;;;5044569;28;20048;-67
2022/08/07 03:42:03;;;;;;;10.70;6.63;;;17.60;70.10;;;;;;5032238;28;20103;-67
2022/08/07 03:44:32;;;;;;;9.60;7.13;;;17.50;70.40;;;;;;5031105;28;20054;-67
2022/08/07 03:46:59;;;;;;;7.13;4.97;;;17.50;70.40;;;;;;5032418;28;20026;-68
2022/08/07 03:49:25;;;;;;;7.22;5.63;;;17.50;70.30;;;;;;5037199;28;20029;-68
2022/08/07 03:51:52;;;;;;;5.82;4.97;;;17.50;70.40;;;;;;5032703;28;20025;-68
2022/08/07 03:54:18;;;;;;;6.32;4.00;;;17.50;71.10;;;;;;5041166;28;20025;-68
2022/08/07 03:56:44;;;;;;;6.00;5.05;;;17.50;70.80;;;;;;5032202;28;20099;-68
2022/08/07 03:59:12;;;;;;;5.93;4.60;;;17.50;70.60;;;;;;5036027;28;20040;-68
2022/08/07 04:01:42;;;;;;;7.70;6.70;;;17.50;70.90;;;;;;5050625;28;20092;-68
2022/08/07 04:04:08;;;;;;;5.00;4.22;;;17.50;71.20;;;;;;5031049;28;20033;-68
2022/08/07 04:06:36;;;;;;;6.43;3.95;;;17.60;71.00;;;;;;5047595;28;20053;-69
2022/08/07 04:09:02;;;;;;;7.45;4.35;;;17.50;71.20;;;;;;5037652;28;20041;-68
2022/08/07 04:11:30;;;;;;;7.75;4.70;;;17.60;71.40;;;;;;5031065;28;20033;-67
2022/08/07 04:13:56;;;;;;;8.18;5.85;;;17.60;71.60;;;;;;5034530;28;20033;-68
2022/08/07 04:16:23;;;;;;;16.75;11.00;;;17.60;71.50;;;;;;5036388;28;20117;-67
2022/08/07 04:18:49;;;;;;;14.60;9.93;;;17.60;71.60;;;;;;5030850;28;20040;-68
2022/08/07 04:21:15;;;;;;;10.77;6.72;;;17.60;71.70;;;;;;5031372;28;20040;-68
2022/08/07 04:23:41;;;;;;;13.48;7.50;;;17.60;71.50;;;;;;5030356;28;20048;-68
2022/08/07 04:26:07;;;;;;;11.05;6.18;;;17.70;72.00;;;;;;5031779;28;20026;-68
2022/08/07 04:28:33;;;;;;;7.97;5.15;;;17.70;72.20;;;;;;5037097;28;20052;-68
2022/08/07 04:30:59;;;;;;;9.73;5.45;;;17.70;72.00;;;;;;5031817;28;20107;-68
2022/08/07 04:33:26;;;;;;;5.78;3.80;;;17.70;71.70;;;;;;5029859;28;20396;-68
2022/08/07 04:35:53;;;;;;;5.72;3.40;;;17.70;71.20;;;;;;5050973;28;20504;-68
2022/08/07 04:38:19;;;;;;;7.05;3.03;;;17.80;71.20;;;;;;5042930;28;20069;-69
2022/08/07 04:40:46;;;;;;;5.35;3.03;;;17.80;71.40;;;;;;5047977;28;20455;-68
2022/08/07 04:43:16;;;;;;;6.75;2.80;;;17.80;71.50;;;;;;5043956;28;20064;-67
2022/08/07 04:45:58;;;;;;;7.85;3.40;;;17.80;71.10;;;;;;5048362;28;20040;-67
2022/08/07 04:48:30;;;;;;;4.75;2.95;;;17.80;71.50;;;;;;5041790;28;20411;-68
2022/08/07 04:51:04;;;;;;;5.85;2.65;;;17.80;71.20;;;;;;5051314;28;20032;-68
2022/08/07 04:53:45;;;;;;;4.10;2.80;;;17.80;71.10;;;;;;5027693;28;20388;-67
2022/08/07 04:56:23;;;;;;;4.43;2.47;;;17.90;71.30;;;;;;5011670;28;20034;-67
2022/08/07 04:59:05;;;;;;;4.90;2.80;;;17.90;71.40;;;;;;5009045;28;20441;-68
2022/08/07 05:01:43;;;;;;;7.15;2.60;;;17.90;71.30;;;;;;5031108;28;20473;-68
2022/08/07 05:04:24;;;;;;;4.00;2.70;;;17.90;71.40;;;;;;5033376;28;20433;-68
2022/08/07 05:07:05;;;;;;;3.92;2.33;;;17.90;70.90;;;;;;5031315;28;20131;-69
2022/08/07 05:09:58;;;;;;;3.75;2.60;;;18.00;71.00;;;;;;5029224;28;20504;-68
2022/08/07 05:12:30;;;;;;;4.72;2.67;;;18.00;71.10;;;;;;5013267;28;20037;-67
2022/08/07 05:15:20;;;;;;;5.63;2.65;;;18.00;71.60;;;;;;5030579;28;20481;-68
2022/08/07 05:17:48;;;;;;;4.43;2.72;;;18.00;71.20;;;;;;5030955;28;20065;-68
2022/08/07 05:20:22;;;;;;;4.00;2.60;;;18.00;70.90;;;;;;5042356;28;20503;-68
2022/08/07 05:22:51;;;;;;;3.47;1.95;;;18.10;71.20;;;;;;5031427;28;20033;-68
2022/08/07 05:25:20;;;;;;;4.63;2.90;;;18.10;71.20;;;;;;5041221;28;20520;-68
2022/08/07 05:27:47;;;;;;;3.97;2.40;;;18.20;71.40;;;;;;5030572;28;20026;-68
2022/08/07 05:30:15;;;;;;;4.60;2.60;;;18.30;71.20;;;;;;5030465;28;20329;-67
2022/08/07 05:32:42;;;;;;;6.80;2.33;;;18.30;71.60;;;;;;5031242;28;20055;-68
2022/08/07 05:35:10;;;;;;;3.60;2.17;;;18.30;71.50;;;;;;5035121;28;20350;-68
2022/08/07 05:37:37;;;;;;;3.95;2.30;;;18.30;71.40;;;;;;5030811;28;20037;-68
2022/08/07 05:40:04;;;;;;;3.78;2.67;;;18.30;71.00;;;;;;5028875;28;20022;-68
2022/08/07 05:42:30;;;;;;;3.58;2.17;;;18.30;71.30;;;;;;5030603;28;20025;-68
2022/08/07 05:44:57;;;;;;;5.45;2.17;;;18.40;71.00;;;;;;5037241;28;20026;-69
2022/08/07 05:47:23;;;;;;;4.35;1.90;;;18.40;71.30;;;;;;5034057;28;20035;-69
2022/08/07 05:49:50;;;;;;;3.20;2.17;;;18.50;70.60;;;;;;5032890;28;20033;-69
2022/08/07 05:52:17;;;;;;;4.57;2.22;;;18.50;70.70;;;;;;5034585;28;20034;-69
2022/08/07 05:54:44;;;;;;;5.57;2.35;;;18.50;70.00;;;;;;5041011;28;20055;-69
2022/08/07 05:57:11;;;;;;;6.07;2.13;;;18.60;69.80;;;;;;5034199;28;20029;-68
2022/08/07 05:59:39;;;;;;;5.53;2.15;;;18.60;69.70;;;;;;5050395;28;20126;-68
2022/08/07 06:02:06;;;;;;;2.97;1.90;;;18.60;69.40;;;;;;5051351;28;20412;-68
2022/08/07 06:04:36;;;;;;;3.42;2.15;;;18.70;69.60;;;;;;5031858;28;20112;-69
2022/08/07 06:07:04;;;;;;;4.22;2.15;;;18.80;69.60;;;;;;5033836;28;20098;-67
2022/08/07 06:09:31;;;;;;;4.28;2.05;;;18.80;69.50;;;;;;5032530;28;20038;-67
2022/08/07 06:11:58;;;;;;;4.90;2.08;;;18.90;69.70;;;;;;5033705;28;20144;-67
2022/08/07 06:14:23;;;;;;;2.85;1.98;;;18.90;69.40;;;;;;5034760;28;20083;-68
2022/08/07 06:16:50;;;;;;;3.35;2.40;;;18.90;68.80;;;;;;5034558;28;20025;-71
2022/08/07 06:19:17;;;;;;;3.95;2.35;;;19.00;68.40;;;;;;5030385;28;20376;-68
2022/08/07 06:21:44;;;;;;;4.93;2.20;;;19.00;68.40;;;;;;5033950;28;20452;-68
2022/08/07 06:24:10;;;;;;;3.70;2.40;;;19.10;68.50;;;;;;5042605;28;20434;-66
2022/08/07 06:26:39;;;;;;;4.45;2.03;;;19.10;68.90;;;;;;5034795;28;20026;-65
2022/08/07 06:29:04;;;;;;;3.97;2.55;;;19.20;69.00;;;;;;5035198;28;20120;-67
2022/08/07 06:31:30;;;;;;;5.63;2.40;;;19.20;69.00;;;;;;5034887;28;20105;-65
2022/08/07 06:33:56;;;;;;;4.28;2.38;;;19.30;69.10;;;;;;5041696;28;20071;-65
2022/08/07 06:36:25;;;;;;;3.63;2.15;;;19.30;68.60;;;;;;5040520;28;20389;-65
2022/08/07 06:38:51;;;;;;;6.35;2.17;;;19.40;68.10;;;;;;5015933;28;20622;-66
2022/08/07 06:41:25;;;;;;;3.53;2.15;;;19.40;67.80;;;;;;5037853;28;20033;-66
2022/08/07 06:43:53;;;;;;;4.90;2.20;;;19.50;67.60;;;;;;5030192;28;20034;-67
2022/08/07 06:46:20;;;;;;;4.90;2.20;;;19.50;66.70;;;;;;5032111;28;20060;-65
2022/08/07 06:48:46;;;;;;;4.03;2.63;;;19.50;66.50;;;;;;5044677;28;20113;-65
2022/08/07 06:51:19;;;;;;;4.47;2.72;;;19.50;66.60;;;;;;5037452;28;20030;-66
2022/08/07 06:53:45;;;;;;;6.95;4.18;;;19.60;66.40;;;;;;5044279;28;20443;-66
2022/08/07 06:56:13;;;;;;;5.10;2.97;;;19.60;66.20;;;;;;5037073;28;20029;-66
2022/08/07 06:58:40;;;;;;;4.43;2.50;;;19.70;66.00;;;;;;5031077;28;20399;-66
2022/08/07 07:01:09;;;;;;;3.90;2.15;;;19.70;66.30;;;;;;5029269;28;20034;-65
2022/08/07 07:03:38;;;;;;;4.78;2.22;;;19.80;66.50;;;;;;5040398;28;20030;-65
2022/08/07 07:06:05;;;;;;;4.82;2.50;;;19.90;66.10;;;;;;5047362;28;20411;-64
2022/08/07 07:08:30;;;;;;;6.03;3.00;;;19.90;65.60;;;;;;5037052;28;20116;-65
2022/08/07 07:10:56;;;;;;;6.43;2.70;;;20.00;65.30;;;;;;5045286;28;20104;-65
2022/08/07 07:13:32;;;;;;;2.88;1.70;;;20.00;65.00;;;;;;5047768;28;20396;-65
2022/08/07 07:16:03;;;;;;;1.95;1.50;;;20.10;64.80;;;;;;5026867;28;20025;-65
2022/08/07 07:18:41;;;;;;;3.05;1.90;;;20.10;63.90;;;;;;5018389;28;20041;-65
2022/08/07 07:21:15;;;;;;;3.20;1.70;;;20.10;64.00;;;;;;5036366;28;20041;-65
2022/08/07 07:23:42;;;;;;;4.17;2.77;;;20.20;63.50;;;;;;5049915;28;20087;-65
2022/08/07 07:26:12;;;;;;;4.15;2.10;;;20.20;63.70;;;;;;5044000;28;20017;-65
2022/08/07 07:28:43;;;;;;;3.80;2.35;;;20.30;63.20;;;;;;5025873;28;20033;-65
2022/08/07 07:31:21;;;;;;;3.80;1.95;;;20.30;63.20;;;;;;5030559;28;20171;-65
2022/08/07 07:33:51;;;;;;;3.35;1.92;;;20.40;63.80;;;;;;5030633;28;20354;-65
2022/08/07 07:36:17;;;;;;;4.00;2.20;;;20.40;64.40;;;;;;5012693;28;20026;-65
2022/08/07 07:38:44;;;;;;;6.57;2.40;;;20.50;63.50;;;;;;5021429;28;20041;-66
2022/08/07 07:41:11;;;;;;;3.95;2.70;;;20.60;63.50;;;;;;5030315;28;20495;-66
2022/08/07 07:43:41;;;;;;;4.10;1.98;;;20.70;63.10;;;;;;5027524;28;20041;-66
2022/08/07 07:46:08;;;;;;;5.38;2.08;;;20.70;62.70;;;;;;5019755;28;20037;-66
2022/08/07 07:48:36;;;;;;;6.88;2.53;;;20.80;62.60;;;;;;5031526;28;20030;-66
2022/08/07 07:51:03;;;;;;;4.13;2.20;;;20.90;63.50;;;;;;5037957;28;20155;-66
2022/08/07 07:53:30;;;;;;;2.63;1.77;;;21.00;63.10;;;;;;5032938;28;20122;-66
2022/08/07 07:55:58;;;;;;;3.65;2.08;;;21.00;62.50;;;;;;5034042;28;20033;-66
2022/08/07 07:58:27;;;;;;;3.95;2.05;;;21.10;62.50;;;;;;5042094;28;20044;-66
2022/08/07 08:00:54;;;;;;;3.47;1.80;;;21.20;61.60;;;;;;5015845;28;20034;-66
2022/08/07 08:03:22;;;;;;;3.42;2.17;;;21.20;61.20;;;;;;5030956;28;20060;-66
2022/08/07 08:05:48;;;;;;;3.90;2.22;;;21.20;60.90;;;;;;5012631;28;20068;-65
2022/08/07 08:08:14;;;;;;;3.08;1.70;;;21.30;61.20;;;;;;5019591;28;20068;-66
2022/08/07 08:10:40;;;;;;;2.97;1.60;;;21.40;60.70;;;;;;5035848;28;20076;-66
2022/08/07 08:13:08;;;;;;;3.55;1.88;;;21.40;60.70;;;;;;5030580;28;20120;-66
2022/08/07 08:15:37;;;;;;;5.00;2.63;;;21.40;61.30;;;;;;5029517;28;20116;-66
2022/08/07 08:18:07;;;;;;;4.90;2.40;;;21.50;60.30;;;;;;5029745;28;20037;-66
2022/08/07 08:20:34;;;;;;;3.95;1.77;;;21.50;60.20;;;;;;5028908;28;20140;-66
2022/08/07 08:28:40;;;;;;;5.47;2.08;;;21.60;59.20;;;;;;5029877;28;20404;-65
2022/08/07 08:31:13;;;;;;;2.67;1.60;;;21.60;59.50;;;;;;5030762;28;20025;-65
2022/08/07 08:33:40;;;;;;;3.58;1.30;;;21.70;59.60;;;;;;5030251;28;20037;-66
2022/08/07 08:36:09;;;;;;;2.45;1.50;;;21.70;58.20;;;;;;5034723;28;20119;-66
2022/08/07 08:38:41;;;;;;;3.65;1.60;;;21.70;58.20;;;;;;5019426;28;20472;-66
2022/08/07 08:41:41;;;;;;;5.22;1.75;;;21.70;58.30;;;;;;5035809;28;20026;-66
2022/08/07 08:44:25;;;;;;;2.20;1.40;;;21.80;58.50;;;;;;5028043;28;20108;-66
2022/08/07 08:47:07;;;;;;;3.83;1.75;;;21.90;58.40;;;;;;5031555;28;20112;-66
2022/08/07 08:49:51;;;;;;;4.95;1.98;;;21.90;58.00;;;;;;5029735;28;20033;-66
2022/08/07 08:52:20;;;;;;;;;;;22.00;58.80;;;;;;5031170;28;20041;-66
2022/08/07 08:55:01;;;;;;;3.03;2.00;;;22.00;59.20;;;;;;5030462;28;19909;-66
2022/08/07 08:58:08;;;;;;;5.63;2.10;;;22.00;57.60;;;;;;5037260;28;20029;-66
2022/08/07 09:00:41;;;;;;;5.25;2.00;;;22.10;57.40;;;;;;5032887;28;20044;-64
2022/08/07 09:03:42;;;;;;;6.03;2.20;;;22.20;57.40;;;;;;5047679;28;20026;-65
2022/08/07 09:06:31;;;;;;;3.15;1.67;;;22.20;57.70;;;;;;5023616;28;20057;-65
2022/08/07 09:09:26;;;;;;;3.35;1.70;;;22.30;57.90;;;;;;5027434;28;20045;-65
2022/08/07 09:12:35;;;;;;;3.70;1.50;;;22.30;56.90;;;;;;4994230;28;20620;-65
2022/08/07 09:15:04;;;;;;;4.35;1.98;;;22.40;56.60;;;;;;5035441;28;20040;-65
2022/08/07 09:17:57;;;;;;;3.28;1.65;;;22.50;57.50;;;;;;5030091;28;20021;-65
2022/08/07 09:20:44;;;;;;;3.10;1.75;;;22.60;57.70;;;;;;5030007;28;20079;-65
2022/08/07 09:23:51;;;;;;;1.85;1.35;;;22.70;56.60;;;;;;5016963;28;20022;-66
2022/08/07 09:26:27;;;;;;;3.13;1.50;;;22.70;56.10;;;;;;5025510;28;20033;-66
2022/08/07 09:28:58;;;;;;;3.20;2.00;;;22.70;55.90;;;;;;5038062;28;20071;-65
2022/08/07 09:31:50;;;;;;;5.75;1.70;;;22.70;56.90;;;;;;5033801;28;20041;-65
2022/08/07 09:34:38;;;;;;;5.90;1.90;;;22.80;57.60;;;;;;5028169;28;20029;-65
2022/08/07 09:37:15;;;;;;;3.42;1.55;;;22.80;56.40;;;;;;5029053;28;20036;-66
2022/08/07 09:40:03;;;;;;;3.33;1.80;;;22.90;55.50;;;;;;5033975;28;20104;-66
2022/08/07 09:42:45;;;;;;;4.88;2.25;;;23.00;56.30;;;;;;5042767;28;20122;-65
2022/08/07 09:45:19;;;;;;;5.30;1.92;;;23.00;55.70;;;;;;5031910;28;20032;-65
2022/08/07 09:48:11;;;;;;;5.40;1.92;;;23.10;55.00;;;;;;5025909;28;20029;-66
2022/08/07 09:50:51;;;;;;;2.60;1.70;;;23.20;56.50;;;;;;5031484;28;20069;-65
2022/08/07 09:53:21;;;;;;;3.58;2.10;;;23.40;56.40;;;;;;5030845;28;20107;-66
2022/08/07 09:56:23;;;;;;;4.45;1.90;;;23.50;55.70;;;;;;5036935;28;20029;-66
2022/08/07 09:59:05;;;;;;;3.35;1.85;;;23.60;56.60;;;;;;5038826;28;20210;-66
2022/08/07 10:01:46;;;;;;;3.17;1.77;;;23.70;54.70;;;;;;5048238;28;20018;-66
2022/08/07 10:04:32;;;;;;;4.18;1.92;;;23.80;54.00;;;;;;5037939;28;20033;-66
2022/08/07 10:07:22;;;;;;;3.35;1.55;;;23.80;53.50;;;;;;5036441;28;20057;-66
2022/08/07 10:10:19;;;;;;;4.30;2.03;;;23.80;52.80;;;;;;5007314;28;20041;-65
2022/08/07 10:12:53;;;;;;;3.08;1.90;;;23.80;54.50;;;;;;5035953;28;20315;-65
2022/08/07 10:15:39;;;;;;;8.70;4.75;;;23.70;54.40;;;;;;5046431;28;20088;-65
2022/08/07 10:18:38;;;;;;;6.32;2.58;;;23.80;54.90;;;;;;5027145;28;20080;-65
2022/08/07 10:21:36;;;;;;;5.68;3.42;;;23.80;54.40;;;;;;5039427;28;20393;-65
2022/08/07 10:24:37;;;;;;;4.88;2.95;;;23.80;54.40;;;;;;5019440;28;20096;-65
2022/08/07 10:27:15;;;;;;;2.90;1.70;;;23.80;54.60;;;;;;5021910;28;20425;-65
2022/08/07 10:30:05;;;;;;;2.97;1.58;;;23.80;53.90;;;;;;5022003;28;21170;-65
2022/08/07 10:32:46;;;;;;;4.13;2.10;;;23.80;52.90;;;;;;5012655;28;20424;-65
2022/08/07 10:35:34;;;;;;;3.35;1.63;;;23.80;53.20;;;;;;5026209;28;20060;-65
2022/08/07 10:38:25;;;;;;;5.72;2.00;;;23.80;52.10;;;;;;5045730;28;20329;-65
2022/08/07 10:41:12;;;;;;;3.00;1.58;;;23.80;52.80;;;;;;5030809;28;20094;-65
2022/08/07 10:44:04;;;;;;;2.40;1.38;;;23.80;52.30;;;;;;5040537;28;20415;-65
2022/08/07 10:46:54;;;;;;;3.15;1.70;;;23.90;52.00;;;;;;5031180;28;20354;-65
2022/08/07 10:49:38;;;;;;;2.08;1.35;;;23.90;51.30;;;;;;5031280;28;20458;-65
2022/08/07 10:52:22;;;;;;;3.08;1.70;;;24.00;51.40;;;;;;5024408;28;20033;-65
2022/08/07 10:55:13;;;;;;;2.50;1.50;;;24.00;51.40;;;;;;5032047;28;20385;-65
2022/08/07 10:57:50;;;;;;;3.10;1.60;;;24.00;50.80;;;;;;5013047;28;20532;-66
2022/08/07 11:00:17;;;;;;;3.63;1.50;;;24.00;51.00;;;;;;5037741;28;20392;-66
2022/08/07 11:02:57;;;;;;;1.83;1.40;;;24.00;50.90;;;;;;5021482;28;20549;-66
2022/08/07 11:05:34;;;;;;;5.13;1.60;;;24.00;52.00;;;;;;5027560;28;20509;-66
2022/08/07 11:08:11;;;;;;;4.15;2.35;;;24.00;51.70;;;;;;5038303;28;20029;-66
2022/08/07 11:10:42;;;;;;;3.20;1.90;;;24.20;53.00;;;;;;5033037;28;20472;-66
2022/08/07 11:13:26;;;;;;;4.90;2.85;;;24.30;53.20;;;;;;5040056;28;20034;-66
2022/08/07 11:15:57;;;;;;;3.63;1.80;;;24.50;52.00;;;;;;5032769;28;20476;-65
2022/08/07 11:18:32;;;;;;;3.20;1.27;;;24.60;52.00;;;;;;5049180;28;20511;-65
2022/08/07 11:21:06;;;;;;;3.70;1.50;;;24.80;51.30;;;;;;5022255;28;20502;-65
2022/08/07 11:24:01;;;;;;;2.50;1.48;;;24.90;51.40;;;;;;5036409;28;20572;-65
2022/08/07 11:26:42;;;;;;;;;;;25.00;50.20;;;;;;5033136;28;20128;-65
2022/08/07 11:29:13;;;;;;;3.88;1.58;;;25.10;50.60;;;;;;5026811;28;20359;-65
2022/08/07 11:32:03;;;;;;;3.03;1.67;;;25.10;50.00;;;;;;5028405;28;20025;-65
2022/08/07 11:34:49;;;;;;;2.85;1.77;;;25.20;48.40;;;;;;5025642;28;20045;-66
2022/08/07 11:37:34;;;;;;;7.18;1.70;;;25.10;48.40;;;;;;5038404;28;20364;-66
2022/08/07 11:40:18;;;;;;;3.13;1.42;;;25.20;48.00;;;;;;5046111;28;20037;-66
2022/08/07 11:43:06;;;;;;;;;;;25.20;49.20;;;;;;5050174;28;20040;-65
2022/08/07 11:46:01;;;;;;;3.20;1.63;;;25.30;49.90;;;;;;5033657;28;20172;-66
2022/08/07 11:48:45;;;;;;;2.17;1.50;;;25.40;49.40;;;;;;5013118;28;20040;-65
2022/08/07 11:51:39;;;;;;;3.75;1.30;;;25.50;50.90;;;;;;5028311;28;20103;-66
2022/08/07 11:54:23;;;;;;;2.88;1.50;;;25.70;48.80;;;;;;5042896;28;20025;-66
2022/08/07 11:57:26;;;;;;;2.17;1.52;;;25.70;48.20;;;;;;5041633;28;20043;-66
2022/08/07 12:00:00;;;;;;;3.88;1.67;;;25.70;47.60;;;;;;5028538;28;20045;-67
2022/08/07 12:02:54;;;;;;;4.82;1.70;;;25.60;46.90;;;;;;5031732;28;20483;-66
2022/08/07 12:05:38;;;;;;;3.97;1.75;;;25.50;47.20;;;;;;5029684;28;20091;-66
2022/08/07 12:08:19;;;;;;;4.30;1.83;;;25.50;47.80;;;;;;5025513;28;20088;-67
2022/08/07 12:10:53;;;;;;;4.32;1.67;;;25.50;47.50;;;;;;5023182;28;20069;-66
2022/08/07 12:13:47;;;;;;;2.05;1.13;;;25.40;46.80;;;;;;5023732;28;20381;-67
2022/08/07 12:16:21;;;;;;;3.58;1.77;;;25.30;47.40;;;;;;5024231;28;20160;-66
2022/08/07 12:19:09;;;;;;;2.42;1.30;;;25.20;46.80;;;;;;5045166;28;20041;-66
2022/08/07 12:21:47;;;;;;;2.47;1.55;;;25.10;47.50;;;;;;5033719;28;20044;-67
2022/08/07 12:24:18;;;;;;;16.08;2.25;;;25.00;47.00;;;;;;5041749;28;20029;-67
2022/08/07 12:26:52;;;;;;;2.58;1.42;;;24.90;46.70;;;;;;5038361;28;20048;-67
2022/08/07 12:29:36;;;;;;;3.20;1.58;;;24.90;47.10;;;;;;5038088;28;20024;-66
2022/08/07 12:32:28;;;;;;;2.53;1.70;;;24.80;47.10;;;;;;5034324;28;20036;-66
2022/08/07 12:35:00;;;;;;;3.00;1.58;;;24.80;48.10;;;;;;5040076;28;20036;-66
2022/08/07 12:37:27;;;;;;;2.75;1.70;;;24.70;47.40;;;;;;5049651;28;20045;-67
2022/08/07 12:39:55;;;;;;;3.83;1.70;;;24.70;47.70;;;;;;5037153;28;20117;-66
2022/08/07 12:42:24;;;;;;;3.05;1.60;;;24.70;47.70;;;;;;5042985;28;20051;-66
2022/08/07 12:44:51;;;;;;;4.35;1.80;;;24.60;47.70;;;;;;5034029;28;20152;-66
2022/08/07 12:47:33;;;;;;;2.22;1.35;;;24.60;47.70;;;;;;5030747;28;20230;-67
2022/08/07 12:50:14;;;;;;;2.55;1.50;;;24.50;47.10;;;;;;5022260;28;20068;-67
2022/08/07 12:52:51;;;;;;;2.08;1.40;;;24.60;47.10;;;;;;5041338;28;20029;-67
2022/08/07 12:55:30;;;;;;;2.70;1.60;;;24.70;47.60;;;;;;5029039;28;20108;-67
2022/08/07 12:57:58;;;;;;;3.25;1.70;;;24.80;47.50;;;;;;5023646;28;20041;-66
2022/08/07 13:00:43;;;;;;;2.03;1.20;;;24.90;47.10;;;;;;5038180;28;20040;-67
2022/08/07 13:03:49;;;;;;;3.92;2.13;;;25.00;47.20;;;;;;5029914;28;20044;-67
2022/08/07 13:06:42;;;;;;;3.67;1.35;;;25.10;47.30;;;;;;5016796;28;20091;-66
2022/08/07 13:09:25;;;;;;;2.95;1.40;;;25.10;46.60;;;;;;5009931;28;20073;-66
2022/08/07 13:12:15;;;;;;;3.72;1.60;;;25.10;46.90;;;;;;5030433;28;20389;-67
2022/08/07 13:15:16;;;;;;;2.70;1.33;;;25.30;47.70;;;;;;5033624;28;20025;-66
2022/08/07 13:17:50;;;;;;;4.47;1.50;;;25.50;48.10;;;;;;5045687;28;20184;-66
2022/08/07 13:20:38;;;;;;;2.72;1.50;;;25.60;47.80;;;;;;5040162;28;20387;-67
2022/08/07 13:23:09;;;;;;;2.58;1.58;;;25.80;47.00;;;;;;5026713;28;20124;-66
2022/08/07 13:25:44;;;;;;;3.63;1.70;;;25.90;46.70;;;;;;5031436;28;20033;-67